createdAt,value
2022-12-27T00:00:42.242Z,0.00
2022-12-27T00:01:42.241Z,0.00
2022-12-27T00:02:42.271Z,0.00
2022-12-27T00:03:42.177Z,0.00
2022-12-27T00:04:42.168Z,0.00
2022-12-27T00:05:42.183Z,0.00
2022-12-27T00:06:42.147Z,0.00
2022-12-27T00:07:42.123Z,0.00
2022-12-27T00:08:42.115Z,0.00
2022-12-27T00:09:42.144Z,0.00
2022-12-27T00:10:42.094Z,0.00
2022-12-27T00:11:42.106Z,0.00
2022-12-27T00:12:42.057Z,0.00
2022-12-27T00:13:42.059Z,0.00
2022-12-27T00:14:42.021Z,0.00
2022-12-27T00:15:42.035Z,0.00
2022-12-27T00:16:42.064Z,0.00
2022-12-27T00:17:42.007Z,0.00
2022-12-27T00:18:41.973Z,0.00
2022-12-27T00:19:41.994Z,0.00
2022-12-27T00:20:42.001Z,0.00
2022-12-27T00:21:41.942Z,0.00
2022-12-27T00:22:41.949Z,0.00
2022-12-27T00:23:41.933Z,0.00
2022-12-27T00:24:41.921Z,0.00
2022-12-27T00:25:41.923Z,0.00
2022-12-27T00:26:41.970Z,0.00
2022-12-27T00:27:41.939Z,0.00
2022-12-27T00:28:41.850Z,0.00
2022-12-27T00:29:41.885Z,0.00
2022-12-27T00:30:41.867Z,0.00
2022-12-27T00:31:41.914Z,0.00
2022-12-27T00:32:41.834Z,0.00
2022-12-27T00:33:41.828Z,0.00
2022-12-27T00:34:41.774Z,0.00
2022-12-27T00:35:41.789Z,0.00
2022-12-27T00:36:41.779Z,0.00
2022-12-27T00:37:41.766Z,0.00
2022-12-27T00:38:41.735Z,0.00
2022-12-27T00:39:41.729Z,0.00
2022-12-27T00:40:41.753Z,0.00
2022-12-27T00:41:41.724Z,0.00
2022-12-27T00:42:41.670Z,0.00
2022-12-27T00:43:41.678Z,0.00
2022-12-27T00:44:41.677Z,0.00
2022-12-27T00:45:41.688Z,0.00
2022-12-27T00:46:41.675Z,0.00
2022-12-27T00:47:41.677Z,0.00
2022-12-27T00:48:41.627Z,0.00
2022-12-27T00:49:41.651Z,0.00
2022-12-27T00:50:41.580Z,0.00
2022-12-27T00:51:41.639Z,0.00
2022-12-27T00:52:41.554Z,0.00
2022-12-27T00:53:41.570Z,0.00
2022-12-27T00:54:41.557Z,0.00
2022-12-27T00:55:41.527Z,0.00
2022-12-27T00:56:41.526Z,0.00
2022-12-27T00:57:41.489Z,0.00
2022-12-27T00:58:41.483Z,0.00
2022-12-27T00:59:41.479Z,0.00
2022-12-27T01:00:41.612Z,0.00
2022-12-27T01:01:41.535Z,0.00
2022-12-27T01:02:41.469Z,0.00
2022-12-27T01:03:41.480Z,0.00
2022-12-27T01:04:41.401Z,0.00
2022-12-27T01:05:41.413Z,0.00
2022-12-27T01:06:41.410Z,0.00
2022-12-27T01:07:41.380Z,0.00
2022-12-27T01:08:41.364Z,0.00
2022-12-27T01:09:41.375Z,0.00
2022-12-27T01:10:41.369Z,0.00
2022-12-27T01:11:41.312Z,0.00
2022-12-27T01:12:41.326Z,0.00
2022-12-27T01:13:41.298Z,0.00
2022-12-27T01:14:41.282Z,0.00
2022-12-27T01:15:41.287Z,0.00
2022-12-27T01:16:41.284Z,0.00
2022-12-27T01:17:41.283Z,0.00
2022-12-27T01:18:41.232Z,0.00
2022-12-27T01:19:41.233Z,0.00
2022-12-27T01:20:41.218Z,0.00
2022-12-27T01:21:41.235Z,0.00
2022-12-27T01:22:41.200Z,0.00
2022-12-27T01:23:41.161Z,0.00
2022-12-27T01:24:41.173Z,0.00
2022-12-27T01:25:41.139Z,0.00
2022-12-27T01:26:41.142Z,0.00
2022-12-27T01:27:41.147Z,0.00
2022-12-27T01:28:41.122Z,0.00
2022-12-27T01:29:41.094Z,0.00
2022-12-27T01:30:41.090Z,0.00
2022-12-27T01:31:41.181Z,0.00
2022-12-27T01:32:41.063Z,0.00
2022-12-27T01:33:41.056Z,0.00
2022-12-27T01:34:41.074Z,0.00
2022-12-27T01:35:41.018Z,0.00
2022-12-27T01:36:41.008Z,0.00
2022-12-27T01:37:40.987Z,0.00
2022-12-27T01:38:41.003Z,0.00
2022-12-27T01:39:40.965Z,0.00
2022-12-27T01:40:40.936Z,0.00
2022-12-27T01:41:40.979Z,0.00
2022-12-27T01:42:40.920Z,0.00
2022-12-27T01:43:40.910Z,0.00
2022-12-27T01:44:40.923Z,0.00
2022-12-27T01:45:40.907Z,0.00
2022-12-27T01:46:40.903Z,0.00
2022-12-27T01:47:40.898Z,0.00
2022-12-27T01:48:40.887Z,0.00
2022-12-27T01:49:40.848Z,0.00
2022-12-27T01:50:40.811Z,0.00
2022-12-27T01:51:40.838Z,0.00
2022-12-27T01:52:40.894Z,0.00
2022-12-27T01:53:40.791Z,0.00
2022-12-27T01:54:40.770Z,0.00
2022-12-27T01:55:40.774Z,0.00
2022-12-27T01:56:40.779Z,0.00
2022-12-27T01:57:40.759Z,0.00
2022-12-27T01:58:40.726Z,0.00
2022-12-27T01:59:40.756Z,0.00
2022-12-27T02:00:40.716Z,0.00
2022-12-27T02:01:40.826Z,0.00
2022-12-27T02:02:40.798Z,0.00
2022-12-27T02:03:40.656Z,0.00
2022-12-27T02:04:40.647Z,0.00
2022-12-27T02:05:40.661Z,0.00
2022-12-27T02:06:40.613Z,0.00
2022-12-27T02:07:40.646Z,0.00
2022-12-27T02:08:40.602Z,0.00
2022-12-27T02:09:40.597Z,0.00
2022-12-27T02:10:40.588Z,0.00
2022-12-27T02:11:40.561Z,0.00
2022-12-27T02:12:40.555Z,0.00
2022-12-27T02:13:40.538Z,0.00
2022-12-27T02:14:40.529Z,0.00
2022-12-27T02:15:40.501Z,0.00
2022-12-27T02:16:40.604Z,0.00
2022-12-27T02:17:40.490Z,0.00
2022-12-27T02:18:40.463Z,0.00
2022-12-27T02:19:40.479Z,0.00
2022-12-27T02:20:40.473Z,0.00
2022-12-27T02:21:40.434Z,0.00
2022-12-27T02:22:40.430Z,0.00
2022-12-27T02:23:40.397Z,0.00
2022-12-27T02:24:40.412Z,0.00
2022-12-27T02:25:40.403Z,0.00
2022-12-27T02:26:40.417Z,0.00
2022-12-27T02:27:40.378Z,0.00
2022-12-27T02:28:40.342Z,0.00
2022-12-27T02:29:40.356Z,0.00
2022-12-27T02:30:40.341Z,0.00
2022-12-27T02:31:40.313Z,0.00
2022-12-27T02:32:40.367Z,0.00
2022-12-27T02:33:40.292Z,0.00
2022-12-27T02:34:40.277Z,0.00
2022-12-27T02:35:40.262Z,0.00
2022-12-27T02:36:40.226Z,0.00
2022-12-27T02:37:40.219Z,0.00
2022-12-27T02:38:40.240Z,0.00
2022-12-27T02:39:40.203Z,0.00
2022-12-27T02:40:40.186Z,0.00
2022-12-27T02:41:40.202Z,0.00
2022-12-27T02:42:40.156Z,0.00
2022-12-27T02:43:40.159Z,0.00
2022-12-27T02:44:40.131Z,0.00
2022-12-27T02:45:40.120Z,0.00
2022-12-27T02:46:40.203Z,0.00
2022-12-27T02:47:40.136Z,0.00
2022-12-27T02:48:40.111Z,0.00
2022-12-27T02:49:40.108Z,0.00
2022-12-27T02:50:40.054Z,0.00
2022-12-27T02:51:40.071Z,0.00
2022-12-27T02:52:40.026Z,0.00
2022-12-27T02:53:40.023Z,0.00
2022-12-27T02:54:40.016Z,0.00
2022-12-27T02:55:39.992Z,0.00
2022-12-27T02:56:39.981Z,0.00
2022-12-27T02:57:39.988Z,0.00
2022-12-27T02:58:39.994Z,0.00
2022-12-27T02:59:39.941Z,0.00
2022-12-27T03:00:39.954Z,0.00
2022-12-27T03:01:40.085Z,0.00
2022-12-27T03:02:39.989Z,0.00
2022-12-27T03:03:44.400Z,0.00
2022-12-27T03:04:39.887Z,0.00
2022-12-27T03:05:39.852Z,0.00
2022-12-27T03:06:39.867Z,0.00
2022-12-27T03:07:39.827Z,0.00
2022-12-27T03:08:39.862Z,0.00
2022-12-27T03:09:39.831Z,0.00
2022-12-27T03:10:39.808Z,0.00
2022-12-27T03:11:39.786Z,0.00
2022-12-27T03:12:39.798Z,0.00
2022-12-27T03:13:39.797Z,0.00
2022-12-27T03:14:39.758Z,0.00
2022-12-27T03:15:39.756Z,0.00
2022-12-27T03:16:39.727Z,0.00
2022-12-27T03:17:39.729Z,0.00
2022-12-27T03:18:39.691Z,0.00
2022-12-27T03:19:39.754Z,0.00
2022-12-27T03:20:39.663Z,0.00
2022-12-27T03:21:39.677Z,0.00
2022-12-27T03:22:39.658Z,0.00
2022-12-27T03:23:39.628Z,0.00
2022-12-27T03:24:39.638Z,0.00
2022-12-27T03:25:39.629Z,0.00
2022-12-27T03:26:39.597Z,0.00
2022-12-27T03:27:39.594Z,0.00
2022-12-27T03:28:39.571Z,0.00
2022-12-27T03:29:39.570Z,0.00
2022-12-27T03:30:39.591Z,0.00
2022-12-27T03:31:39.528Z,0.00
2022-12-27T03:32:39.523Z,0.00
2022-12-27T03:33:39.573Z,0.00
2022-12-27T03:34:39.543Z,0.00
2022-12-27T03:35:39.474Z,0.00
2022-12-27T03:36:39.462Z,0.00
2022-12-27T03:37:39.451Z,0.00
2022-12-27T03:38:39.452Z,0.00
2022-12-27T03:39:39.440Z,0.00
2022-12-27T03:40:39.439Z,0.00
2022-12-27T03:41:39.412Z,0.00
2022-12-27T03:42:39.398Z,0.00
2022-12-27T03:43:39.372Z,0.00
2022-12-27T03:44:39.374Z,0.00
2022-12-27T03:45:39.401Z,0.00
2022-12-27T03:46:39.406Z,0.00
2022-12-27T03:47:39.336Z,0.00
2022-12-27T03:48:39.321Z,0.00
2022-12-27T03:49:39.309Z,0.00
2022-12-27T03:50:39.345Z,0.00
2022-12-27T03:51:39.290Z,0.00
2022-12-27T03:52:39.261Z,0.00
2022-12-27T03:53:39.251Z,0.00
2022-12-27T03:54:39.278Z,0.00
2022-12-27T03:55:39.267Z,0.00
2022-12-27T03:56:39.252Z,0.00
2022-12-27T03:57:39.187Z,0.00
2022-12-27T03:58:39.176Z,0.00
2022-12-27T03:59:39.163Z,0.00
2022-12-27T04:00:39.216Z,0.00
2022-12-27T04:01:39.216Z,0.00
2022-12-27T04:02:39.361Z,0.00
2022-12-27T04:03:39.178Z,0.00
2022-12-27T04:04:39.113Z,0.00
2022-12-27T04:05:39.128Z,0.00
2022-12-27T04:06:39.140Z,0.00
2022-12-27T04:07:39.084Z,0.00
2022-12-27T04:08:39.047Z,0.00
2022-12-27T04:09:39.037Z,0.00
2022-12-27T04:10:39.044Z,0.00
2022-12-27T04:11:39.013Z,0.00
2022-12-27T04:12:39.014Z,0.00
2022-12-27T04:13:39.042Z,0.00
2022-12-27T04:14:38.988Z,0.00
2022-12-27T04:15:39.026Z,0.00
2022-12-27T04:16:39.005Z,0.00
2022-12-27T04:17:38.947Z,0.00
2022-12-27T04:18:38.952Z,0.00
2022-12-27T04:19:38.954Z,0.00
2022-12-27T04:20:38.907Z,0.00
2022-12-27T04:21:38.895Z,0.00
2022-12-27T04:22:38.906Z,0.00
2022-12-27T04:23:38.886Z,0.00
2022-12-27T04:24:38.856Z,0.00
2022-12-27T04:25:38.867Z,0.00
2022-12-27T04:26:38.853Z,0.00
2022-12-27T04:27:38.822Z,0.00
2022-12-27T04:28:38.807Z,0.00
2022-12-27T04:29:38.805Z,0.00
2022-12-27T04:30:38.782Z,0.00
2022-12-27T04:31:38.851Z,0.00
2022-12-27T04:32:38.741Z,0.00
2022-12-27T04:33:38.739Z,0.00
2022-12-27T04:34:38.761Z,0.00
2022-12-27T04:35:38.715Z,0.00
2022-12-27T04:36:38.723Z,0.00
2022-12-27T04:37:38.739Z,0.00
2022-12-27T04:38:38.686Z,0.00
2022-12-27T04:39:38.648Z,0.00
2022-12-27T04:40:38.677Z,0.00
2022-12-27T04:41:38.678Z,0.00
2022-12-27T04:42:38.611Z,0.00
2022-12-27T04:43:38.625Z,0.00
2022-12-27T04:44:38.595Z,0.00
2022-12-27T04:45:38.591Z,0.00
2022-12-27T04:46:38.632Z,0.00
2022-12-27T04:47:38.558Z,0.00
2022-12-27T04:48:38.547Z,0.00
2022-12-27T04:49:38.567Z,0.00
2022-12-27T04:50:38.514Z,0.00
2022-12-27T04:51:38.538Z,0.00
2022-12-27T04:52:38.497Z,0.00
2022-12-27T04:53:38.508Z,0.00
2022-12-27T04:54:38.461Z,0.00
2022-12-27T04:55:38.458Z,0.00
2022-12-27T04:56:38.463Z,0.00
2022-12-27T04:57:38.493Z,0.00
2022-12-27T04:58:38.431Z,0.00
2022-12-27T04:59:38.431Z,0.00
2022-12-27T05:00:38.392Z,0.00
2022-12-27T05:01:38.465Z,0.00
2022-12-27T05:02:38.543Z,0.00
2022-12-27T05:03:38.395Z,0.00
2022-12-27T05:04:38.347Z,0.00
2022-12-27T05:05:38.363Z,0.00
2022-12-27T05:06:38.306Z,0.00
2022-12-27T05:07:38.346Z,0.00
2022-12-27T05:08:38.347Z,0.00
2022-12-27T05:09:38.287Z,0.00
2022-12-27T05:10:38.271Z,0.00
2022-12-27T05:11:38.259Z,0.00
2022-12-27T05:12:38.286Z,0.00
2022-12-27T05:13:38.213Z,0.00
2022-12-27T05:14:38.242Z,0.00
2022-12-27T05:15:38.225Z,0.00
2022-12-27T05:16:38.211Z,0.00
2022-12-27T05:17:38.168Z,0.00
2022-12-27T05:18:38.206Z,0.00
2022-12-27T05:19:38.157Z,0.00
2022-12-27T05:20:38.154Z,0.00
2022-12-27T05:21:38.164Z,0.00
2022-12-27T05:22:38.119Z,0.00
2022-12-27T05:23:38.106Z,0.00
2022-12-27T05:24:38.122Z,0.00
2022-12-27T05:25:38.110Z,0.00
2022-12-27T05:26:38.059Z,0.00
2022-12-27T05:27:38.056Z,0.00
2022-12-27T05:28:38.141Z,0.00
2022-12-27T05:29:38.019Z,0.00
2022-12-27T05:30:38.065Z,0.00
2022-12-27T05:31:38.013Z,0.00
2022-12-27T05:32:38.029Z,0.00
2022-12-27T05:33:38.015Z,0.00
2022-12-27T05:34:37.969Z,0.00
2022-12-27T05:35:38.021Z,0.00
2022-12-27T05:36:37.953Z,0.00
2022-12-27T05:37:37.939Z,0.00
2022-12-27T05:38:37.917Z,0.00
2022-12-27T05:39:37.943Z,0.00
2022-12-27T05:40:37.906Z,0.00
2022-12-27T05:41:37.879Z,0.00
2022-12-27T05:42:37.853Z,0.00
2022-12-27T05:43:37.889Z,0.00
2022-12-27T05:44:37.836Z,0.00
2022-12-27T05:45:37.828Z,0.00
2022-12-27T05:46:37.831Z,0.00
2022-12-27T05:47:37.782Z,0.00
2022-12-27T05:48:37.775Z,0.00
2022-12-27T05:49:37.790Z,0.00
2022-12-27T05:50:37.769Z,0.00
2022-12-27T05:51:37.737Z,0.00
2022-12-27T05:52:41.194Z,0.00
2022-12-27T05:53:37.755Z,0.00
2022-12-27T05:54:37.700Z,0.00
2022-12-27T05:55:37.721Z,0.00
2022-12-27T05:56:37.705Z,0.00
2022-12-27T05:57:37.653Z,0.00
2022-12-27T05:58:37.650Z,0.00
2022-12-27T05:59:37.638Z,0.00
2022-12-27T06:00:37.658Z,0.00
2022-12-27T06:01:37.703Z,0.00
2022-12-27T06:02:37.853Z,0.00
2022-12-27T06:03:37.666Z,0.00
2022-12-27T06:04:37.599Z,0.00
2022-12-27T06:05:37.577Z,0.00
2022-12-27T06:06:37.631Z,0.00
2022-12-27T06:07:37.536Z,0.00
2022-12-27T06:08:37.530Z,0.00
2022-12-27T06:09:37.580Z,0.00
2022-12-27T06:10:37.520Z,0.00
2022-12-27T06:11:37.475Z,0.00
2022-12-27T06:12:37.533Z,0.00
2022-12-27T06:13:37.460Z,0.00
2022-12-27T06:14:37.447Z,0.00
2022-12-27T06:15:37.417Z,0.00
2022-12-27T06:16:37.520Z,0.00
2022-12-27T06:17:37.416Z,0.00
2022-12-27T06:18:37.450Z,0.00
2022-12-27T06:19:37.393Z,0.00
2022-12-27T06:20:37.396Z,0.00
2022-12-27T06:21:37.370Z,0.00
2022-12-27T06:22:37.363Z,0.00
2022-12-27T06:23:37.362Z,0.00
2022-12-27T06:24:37.353Z,0.00
2022-12-27T06:25:37.327Z,0.00
2022-12-27T06:26:37.311Z,0.00
2022-12-27T06:27:37.309Z,0.00
2022-12-27T06:28:37.274Z,0.00
2022-12-27T06:29:37.294Z,0.00
2022-12-27T06:30:37.268Z,0.00
2022-12-27T06:31:37.251Z,0.00
2022-12-27T06:32:37.224Z,0.00
2022-12-27T06:33:37.209Z,0.00
2022-12-27T06:34:37.187Z,0.00
2022-12-27T06:35:37.208Z,0.00
2022-12-27T06:36:37.182Z,0.00
2022-12-27T06:37:37.170Z,0.00
2022-12-27T06:38:37.141Z,0.00
2022-12-27T06:39:37.139Z,0.00
2022-12-27T06:40:37.163Z,0.00
2022-12-27T06:41:37.107Z,0.00
2022-12-27T06:42:37.102Z,0.00
2022-12-27T06:43:37.129Z,0.00
2022-12-27T06:44:37.079Z,0.00
2022-12-27T06:45:37.119Z,0.00
2022-12-27T06:46:37.082Z,0.00
2022-12-27T06:47:37.095Z,0.00
2022-12-27T06:48:36.973Z,0.00
2022-12-27T06:49:37.001Z,0.00
2022-12-27T06:50:36.966Z,0.00
2022-12-27T06:51:36.955Z,0.00
2022-12-27T06:52:36.927Z,0.00
2022-12-27T06:53:36.902Z,0.00
2022-12-27T06:54:36.928Z,0.00
2022-12-27T06:55:36.906Z,0.00
2022-12-27T06:56:37.156Z,0.00
2022-12-27T06:57:36.845Z,0.00
2022-12-27T06:58:36.873Z,0.00
2022-12-27T06:59:36.836Z,0.00
2022-12-27T07:00:36.883Z,0.00
2022-12-27T07:01:36.980Z,0.00
2022-12-27T07:02:36.879Z,0.00
2022-12-27T07:03:36.790Z,0.00
2022-12-27T07:04:36.772Z,0.00
2022-12-27T07:05:36.739Z,0.00
2022-12-27T07:06:36.787Z,0.00
2022-12-27T07:07:36.800Z,0.00
2022-12-27T07:08:36.708Z,0.00
2022-12-27T07:09:36.706Z,0.00
2022-12-27T07:10:36.750Z,0.00
2022-12-27T07:11:36.694Z,0.00
2022-12-27T07:12:37.149Z,0.00
2022-12-27T07:13:36.679Z,0.00
2022-12-27T07:14:36.640Z,0.00
2022-12-27T07:15:36.622Z,0.00
2022-12-27T07:16:36.732Z,0.00
2022-12-27T07:17:36.589Z,0.01
2022-12-27T07:18:36.584Z,0.01
2022-12-27T07:19:36.594Z,0.01
2022-12-27T07:20:36.581Z,0.01
2022-12-27T07:21:36.550Z,0.01
2022-12-27T07:22:36.601Z,0.01
2022-12-27T07:23:36.537Z,0.01
2022-12-27T07:24:36.515Z,0.01
2022-12-27T07:25:36.535Z,0.01
2022-12-27T07:26:36.534Z,0.01
2022-12-27T07:27:36.504Z,0.01
2022-12-27T07:28:36.451Z,0.01
2022-12-27T07:29:41.909Z,0.01
2022-12-27T07:30:36.429Z,0.03
2022-12-27T07:31:36.469Z,0.03
2022-12-27T07:32:36.481Z,0.03
2022-12-27T07:33:36.409Z,0.03
2022-12-27T07:34:36.387Z,0.03
2022-12-27T07:35:40.794Z,0.03
2022-12-27T07:36:36.422Z,0.04
2022-12-27T07:37:36.335Z,0.04
2022-12-27T07:38:36.450Z,0.04
2022-12-27T07:39:36.335Z,0.04
2022-12-27T07:40:36.317Z,0.05
2022-12-27T07:41:36.331Z,0.05
2022-12-27T07:42:36.312Z,0.05
2022-12-27T07:43:36.275Z,0.05
2022-12-27T07:44:36.263Z,0.06
2022-12-27T07:45:36.360Z,0.08
2022-12-27T07:46:36.233Z,0.08
2022-12-27T07:47:36.229Z,0.09
2022-12-27T07:48:36.250Z,0.09
2022-12-27T07:49:36.182Z,0.10
2022-12-27T07:50:36.171Z,0.10
2022-12-27T07:51:36.231Z,0.10
2022-12-27T07:52:36.180Z,0.11
2022-12-27T07:53:36.176Z,0.11
2022-12-27T07:54:36.162Z,0.11
2022-12-27T07:55:36.103Z,0.11
2022-12-27T07:56:36.093Z,0.13
2022-12-27T07:57:36.151Z,0.13
2022-12-27T07:58:36.087Z,0.13
2022-12-27T07:59:36.084Z,0.13
2022-12-27T08:00:36.073Z,0.14
2022-12-27T08:01:36.224Z,0.14
2022-12-27T08:02:36.093Z,0.14
2022-12-27T08:03:36.138Z,0.14
2022-12-27T08:04:36.005Z,0.15
2022-12-27T08:05:36.088Z,0.15
2022-12-27T08:06:35.971Z,0.15
2022-12-27T08:07:35.982Z,0.15
2022-12-27T08:08:36.009Z,0.15
2022-12-27T08:09:35.937Z,0.15
2022-12-27T08:10:35.991Z,0.15
2022-12-27T08:11:35.961Z,0.15
2022-12-27T08:12:35.923Z,0.15
2022-12-27T08:13:36.003Z,0.15
2022-12-27T08:14:35.880Z,0.15
2022-12-27T08:15:35.862Z,0.15
2022-12-27T08:16:35.967Z,0.16
2022-12-27T08:17:35.868Z,0.16
2022-12-27T08:18:35.839Z,0.15
2022-12-27T08:19:35.857Z,0.15
2022-12-27T08:20:35.846Z,0.14
2022-12-27T08:21:35.812Z,0.14
2022-12-27T08:22:35.777Z,0.14
2022-12-27T08:23:35.814Z,0.14
2022-12-27T08:24:35.811Z,0.14
2022-12-27T08:25:35.763Z,0.14
2022-12-27T08:26:35.737Z,0.14
2022-12-27T08:27:35.748Z,0.14
2022-12-27T08:28:35.737Z,0.14
2022-12-27T08:29:35.679Z,0.15
2022-12-27T08:30:35.743Z,0.15
2022-12-27T08:31:35.653Z,0.15
2022-12-27T08:32:35.667Z,0.16
2022-12-27T08:33:35.711Z,0.16
2022-12-27T08:34:35.619Z,0.16
2022-12-27T08:35:52.869Z,0.16
2022-12-27T08:37:35.608Z,0.16
2022-12-27T08:38:35.597Z,0.16
2022-12-27T08:39:35.555Z,0.16
2022-12-27T08:40:35.585Z,0.16
2022-12-27T08:41:35.519Z,0.16
2022-12-27T08:42:35.510Z,0.18
2022-12-27T08:43:35.572Z,0.18
2022-12-27T08:44:35.519Z,0.18
2022-12-27T08:45:35.547Z,0.18
2022-12-27T08:46:35.483Z,0.18
2022-12-27T08:47:35.451Z,0.18
2022-12-27T08:48:35.615Z,0.18
2022-12-27T08:49:35.455Z,0.18
2022-12-27T08:50:35.406Z,0.18
2022-12-27T08:51:40.693Z,0.18
2022-12-27T08:52:35.387Z,0.19
2022-12-27T08:53:35.398Z,0.19
2022-12-27T08:54:35.391Z,0.20
2022-12-27T08:55:35.339Z,0.20
2022-12-27T08:56:35.323Z,0.22
2022-12-27T08:57:35.346Z,0.22
2022-12-27T08:58:35.420Z,0.22
2022-12-27T08:59:35.321Z,0.20
2022-12-27T09:00:35.301Z,0.20
2022-12-27T09:01:35.341Z,0.20
2022-12-27T09:02:35.414Z,0.20
2022-12-27T09:03:35.345Z,0.20
2022-12-27T09:04:35.240Z,0.20
2022-12-27T09:05:41.236Z,0.20
2022-12-27T09:06:35.241Z,0.20
2022-12-27T09:07:35.191Z,0.20
2022-12-27T09:08:35.185Z,0.20
2022-12-27T09:09:35.235Z,0.22
2022-12-27T09:10:35.158Z,0.22
2022-12-27T09:11:35.150Z,0.22
2022-12-27T09:12:35.223Z,0.22
2022-12-27T09:13:35.134Z,0.22
2022-12-27T09:14:35.122Z,0.22
2022-12-27T09:15:35.194Z,0.22
2022-12-27T09:16:35.090Z,0.22
2022-12-27T09:17:35.083Z,0.22
2022-12-27T09:18:35.061Z,0.22
2022-12-27T09:19:35.096Z,0.23
2022-12-27T09:20:35.033Z,0.22
2022-12-27T09:21:35.104Z,0.23
2022-12-27T09:22:35.082Z,0.23
2022-12-27T09:23:35.070Z,0.23
2022-12-27T09:24:35.005Z,0.23
2022-12-27T09:25:35.018Z,0.24
2022-12-27T09:26:35.015Z,0.24
2022-12-27T09:27:34.963Z,0.25
2022-12-27T09:28:34.928Z,0.25
2022-12-27T09:29:35.048Z,0.24
2022-12-27T09:30:35.004Z,0.24
2022-12-27T09:31:35.015Z,0.24
2022-12-27T09:32:34.892Z,0.25
2022-12-27T09:33:34.887Z,0.25
2022-12-27T09:34:34.867Z,0.27
2022-12-27T09:35:38.409Z,0.28
2022-12-27T09:36:34.890Z,0.28
2022-12-27T09:37:34.860Z,0.29
2022-12-27T09:38:34.811Z,0.29
2022-12-27T09:39:34.838Z,0.29
2022-12-27T09:40:34.777Z,0.29
2022-12-27T09:42:50.787Z,0.32
2022-12-27T09:43:34.771Z,0.34
2022-12-27T09:44:34.801Z,0.37
2022-12-27T09:45:34.723Z,0.38
2022-12-27T09:46:34.835Z,0.41
2022-12-27T09:47:34.701Z,0.42
2022-12-27T09:48:34.666Z,0.42
2022-12-27T09:49:34.695Z,0.42
2022-12-27T09:50:34.656Z,0.42
2022-12-27T09:51:34.649Z,0.43
2022-12-27T09:52:34.645Z,0.43
2022-12-27T09:53:34.629Z,0.43
2022-12-27T09:54:34.646Z,0.43
2022-12-27T09:55:34.596Z,0.43
2022-12-27T09:57:01.771Z,0.44
2022-12-27T09:57:34.623Z,0.43
2022-12-27T09:58:34.550Z,0.43
2022-12-27T09:59:34.595Z,0.42
2022-12-27T10:00:36.521Z,0.42
2022-12-27T10:01:34.624Z,0.42
2022-12-27T10:02:34.622Z,0.41
2022-12-27T10:03:34.491Z,0.39
2022-12-27T10:05:00.841Z,0.39
2022-12-27T10:05:34.565Z,0.39
2022-12-27T10:06:34.474Z,0.38
2022-12-27T10:07:34.441Z,0.38
2022-12-27T10:08:34.442Z,0.39
2022-12-27T10:09:34.465Z,0.41
2022-12-27T10:10:34.388Z,0.41
2022-12-27T10:11:34.406Z,0.42
2022-12-27T10:12:34.391Z,0.43
2022-12-27T10:13:34.493Z,0.43
2022-12-27T10:14:34.364Z,0.44
2022-12-27T10:15:34.487Z,0.47
2022-12-27T10:16:34.312Z,0.48
2022-12-27T10:17:34.381Z,0.51
2022-12-27T10:18:34.318Z,0.52
2022-12-27T10:19:34.306Z,0.52
2022-12-27T10:20:34.274Z,0.53
2022-12-27T10:21:34.306Z,0.52
2022-12-27T10:22:34.270Z,0.53
2022-12-27T10:23:34.244Z,0.53
2022-12-27T10:24:34.278Z,0.53
2022-12-27T10:25:34.236Z,0.53
2022-12-27T10:26:34.463Z,0.53
2022-12-27T10:27:34.209Z,0.53
2022-12-27T10:28:34.171Z,0.52
2022-12-27T10:29:34.227Z,0.53
2022-12-27T10:30:34.171Z,0.53
2022-12-27T10:31:34.148Z,0.52
2022-12-27T10:32:34.157Z,0.52
2022-12-27T10:33:34.113Z,0.51
2022-12-27T10:34:34.076Z,0.49
2022-12-27T10:35:34.105Z,0.49
2022-12-27T10:36:34.064Z,0.48
2022-12-27T10:37:34.054Z,0.48
2022-12-27T10:38:34.039Z,0.46
2022-12-27T10:39:34.021Z,0.43
2022-12-27T10:40:34.639Z,0.42
2022-12-27T10:41:34.013Z,0.42
2022-12-27T10:42:33.987Z,0.42
2022-12-27T10:43:33.977Z,0.38
2022-12-27T10:44:33.991Z,0.35
2022-12-27T10:45:33.999Z,0.37
2022-12-27T10:46:34.115Z,0.35
2022-12-27T10:47:33.966Z,0.35
2022-12-27T10:48:54.621Z,0.35
2022-12-27T10:49:40.406Z,0.35
2022-12-27T10:50:33.898Z,0.34
2022-12-27T10:51:33.874Z,0.33
2022-12-27T10:52:33.859Z,0.33
2022-12-27T10:53:33.862Z,0.33
2022-12-27T10:54:33.864Z,0.33
2022-12-27T10:55:33.847Z,0.34
2022-12-27T10:56:33.876Z,0.34
2022-12-27T10:57:33.799Z,0.37
2022-12-27T10:58:33.784Z,0.37
2022-12-27T10:59:33.849Z,0.38
2022-12-27T11:00:33.823Z,0.39
2022-12-27T11:01:33.839Z,0.42
2022-12-27T11:02:33.811Z,0.42
2022-12-27T11:03:33.756Z,0.43
2022-12-27T11:04:33.704Z,0.44
2022-12-27T11:05:33.728Z,0.44
2022-12-27T11:06:33.732Z,0.42
2022-12-27T11:07:33.684Z,0.41
2022-12-27T11:08:33.668Z,0.42
2022-12-27T11:09:33.724Z,0.42
2022-12-27T11:10:33.654Z,0.43
2022-12-27T11:11:33.617Z,0.43
2022-12-27T11:12:33.620Z,0.43
2022-12-27T11:13:33.594Z,0.43
2022-12-27T11:14:33.574Z,0.44
2022-12-27T11:15:33.590Z,0.43
2022-12-27T11:16:33.625Z,0.37
2022-12-27T11:17:33.536Z,0.35
2022-12-27T11:18:33.522Z,0.35
2022-12-27T11:19:33.520Z,0.35
2022-12-27T11:20:33.513Z,0.33
2022-12-27T11:21:33.504Z,0.33
2022-12-27T11:22:33.487Z,0.30
2022-12-27T11:23:33.467Z,0.30
2022-12-27T11:24:33.450Z,0.33
2022-12-27T11:25:33.442Z,0.34
2022-12-27T11:26:33.486Z,0.34
2022-12-27T11:27:33.418Z,0.37
2022-12-27T11:28:33.393Z,0.35
2022-12-27T11:29:33.405Z,0.37
2022-12-27T11:30:33.398Z,0.38
2022-12-27T11:31:33.424Z,0.38
2022-12-27T11:32:33.363Z,0.39
2022-12-27T11:33:33.335Z,0.39
2022-12-27T11:34:33.332Z,0.42
2022-12-27T11:35:33.307Z,0.43
2022-12-27T11:36:33.336Z,0.44
2022-12-27T11:37:33.285Z,0.46
2022-12-27T11:38:33.319Z,0.44
2022-12-27T11:39:33.281Z,0.43
2022-12-27T11:40:33.294Z,0.42
2022-12-27T11:41:33.251Z,0.39
2022-12-27T11:42:33.234Z,0.39
2022-12-27T11:43:33.217Z,0.39
2022-12-27T11:44:33.215Z,0.39
2022-12-27T11:45:33.191Z,0.38
2022-12-27T11:46:33.244Z,0.38
2022-12-27T11:47:33.170Z,0.38
2022-12-27T11:48:33.202Z,0.38
2022-12-27T11:49:33.145Z,0.38
2022-12-27T11:50:33.131Z,0.41
2022-12-27T11:51:33.149Z,0.42
2022-12-27T11:52:33.130Z,0.46
2022-12-27T11:53:33.082Z,0.47
2022-12-27T11:54:33.069Z,0.47
2022-12-27T11:55:33.072Z,0.47
2022-12-27T11:56:33.069Z,0.49
2022-12-27T11:57:33.034Z,0.51
2022-12-27T11:58:33.041Z,0.51
2022-12-27T11:59:33.010Z,0.49
2022-12-27T12:00:32.993Z,0.49
2022-12-27T12:01:33.066Z,0.48
2022-12-27T12:02:33.025Z,0.47
2022-12-27T12:03:32.980Z,0.44
2022-12-27T12:04:32.942Z,0.43
2022-12-27T12:05:32.920Z,0.43
2022-12-27T12:06:34.724Z,0.42
2022-12-27T12:07:32.930Z,0.42
2022-12-27T12:08:32.896Z,0.41
2022-12-27T12:09:32.871Z,0.39
2022-12-27T12:10:32.873Z,0.41
2022-12-27T12:11:32.847Z,0.42
2022-12-27T12:12:32.861Z,0.43
2022-12-27T12:13:32.845Z,0.44
2022-12-27T12:14:32.804Z,0.48
2022-12-27T12:15:32.792Z,0.49
2022-12-27T12:16:32.858Z,0.51
2022-12-27T12:17:36.089Z,0.53
2022-12-27T12:18:32.786Z,0.54
2022-12-27T12:19:32.778Z,0.54
2022-12-27T12:20:32.743Z,0.54
2022-12-27T12:21:32.729Z,0.54
2022-12-27T12:22:32.780Z,0.56
2022-12-27T12:23:32.704Z,0.57
2022-12-27T12:24:32.703Z,0.56
2022-12-27T12:25:32.761Z,0.54
2022-12-27T12:26:32.678Z,0.54
2022-12-27T12:27:32.669Z,0.53
2022-12-27T12:28:57.568Z,0.52
2022-12-27T12:29:32.629Z,0.51
2022-12-27T12:30:32.637Z,0.49
2022-12-27T12:31:32.697Z,0.48
2022-12-27T12:32:32.616Z,0.46
2022-12-27T12:33:32.576Z,0.47
2022-12-27T12:34:32.564Z,0.48
2022-12-27T12:35:32.544Z,0.48
2022-12-27T12:36:32.535Z,0.46
2022-12-27T12:37:32.540Z,0.42
2022-12-27T12:38:32.582Z,0.41
2022-12-27T12:39:32.491Z,0.39
2022-12-27T12:40:32.484Z,0.38
2022-12-27T12:41:32.471Z,0.38
2022-12-27T12:42:32.515Z,0.37
2022-12-27T12:43:32.455Z,0.37
2022-12-27T12:44:37.944Z,0.37
2022-12-27T12:45:32.615Z,0.30
2022-12-27T12:46:32.430Z,0.28
2022-12-27T12:47:32.428Z,0.32
2022-12-27T12:48:32.389Z,0.35
2022-12-27T12:49:32.411Z,0.38
2022-12-27T12:50:32.376Z,0.39
2022-12-27T12:51:32.341Z,0.43
2022-12-27T12:52:32.416Z,0.42
2022-12-27T12:53:32.308Z,0.41
2022-12-27T12:54:32.311Z,0.39
2022-12-27T12:55:38.295Z,0.39
2022-12-27T12:56:32.318Z,0.39
2022-12-27T12:57:32.288Z,0.37
2022-12-27T12:58:32.268Z,0.35
2022-12-27T12:59:32.312Z,0.35
2022-12-27T13:00:32.267Z,0.35
2022-12-27T13:01:32.378Z,0.34
2022-12-27T13:02:32.449Z,0.35
2022-12-27T13:03:32.232Z,0.34
2022-12-27T13:04:32.186Z,0.34
2022-12-27T13:05:32.183Z,0.37
2022-12-27T13:06:32.158Z,0.38
2022-12-27T13:07:39.216Z,0.42
2022-12-27T13:08:32.209Z,0.46
2022-12-27T13:09:32.112Z,0.47
2022-12-27T13:10:32.094Z,0.46
2022-12-27T13:11:32.136Z,0.46
2022-12-27T13:12:32.094Z,0.42
2022-12-27T13:13:32.075Z,0.38
2022-12-27T13:14:32.045Z,0.35
2022-12-27T13:15:32.039Z,0.37
2022-12-27T13:16:32.066Z,0.39
2022-12-27T13:17:31.996Z,0.42
2022-12-27T13:18:32.031Z,0.44
2022-12-27T13:19:32.023Z,0.43
2022-12-27T13:20:31.965Z,0.44